sensor_id;sensor_type;location;lat;lon;timestamp;P1;durP1;ratioP1;P2;durP2;ratioP2
34573;SDS011;20809;49.594;8.734;2023-07-29T00:01:17;6.75;;;5.28;;
34573;SDS011;20809;49.594;8.734;2023-07-29T00:04:18;5.10;;;4.60;;
34573;SDS011;20809;49.594;8.734;2023-07-29T00:07:20;6.13;;;4.88;;
34573;SDS011;20809;49.594;8.734;2023-07-29T00:10:20;6.28;;;4.93;;
34573;SDS011;20809;49.594;8.734;2023-07-29T00:13:21;5.67;;;5.17;;
34573;SDS011;20809;49.594;8.734;2023-07-29T00:16:21;5.28;;;4.78;;
34573;SDS011;20809;49.594;8.734;2023-07-29T00:19:22;4.95;;;4.50;;
34573;SDS011;20809;49.594;8.734;2023-07-29T00:22:23;5.03;;;4.53;;
34573;SDS011;20809;49.594;8.734;2023-07-29T00:25:24;6.40;;;3.93;;
34573;SDS011;20809;49.594;8.734;2023-07-29T00:28:24;5.03;;;4.53;;
34573;SDS011;20809;49.594;8.734;2023-07-29T00:31:25;5.90;;;5.30;;
34573;SDS011;20809;49.594;8.734;2023-07-29T00:34:25;5.40;;;4.90;;
34573;SDS011;20809;49.594;8.734;2023-07-29T00:37:27;5.67;;;4.60;;
34573;SDS011;20809;49.594;8.734;2023-07-29T00:40:28;5.95;;;4.47;;
34573;SDS011;20809;49.594;8.734;2023-07-29T00:43:30;6.00;;;4.50;;
34573;SDS011;20809;49.594;8.734;2023-07-29T00:46:30;4.47;;;3.92;;
34573;SDS011;20809;49.594;8.734;2023-07-29T00:49:34;6.50;;;3.92;;
34573;SDS011;20809;49.594;8.734;2023-07-29T00:52:35;4.15;;;3.70;;
34573;SDS011;20809;49.594;8.734;2023-07-29T00:59:07;4.35;;;4.03;;
34573;SDS011;20809;49.594;8.734;2023-07-29T01:02:07;5.78;;;4.88;;
34573;SDS011;20809;49.594;8.734;2023-07-29T01:05:08;5.10;;;4.43;;
34573;SDS011;20809;49.594;8.734;2023-07-29T01:08:25;8.38;;;5.40;;
34573;SDS011;20809;49.594;8.734;2023-07-29T01:11:52;5.72;;;5.00;;
34573;SDS011;20809;49.594;8.734;2023-07-29T01:18:31;4.70;;;4.30;;
34573;SDS011;20809;49.594;8.734;2023-07-29T01:21:32;5.75;;;5.07;;
34573;SDS011;20809;49.594;8.734;2023-07-29T01:24:35;5.10;;;4.70;;
34573;SDS011;20809;49.594;8.734;2023-07-29T01:27:35;5.17;;;4.67;;
34573;SDS011;20809;49.594;8.734;2023-07-29T01:30:39;5.27;;;4.70;;
34573;SDS011;20809;49.594;8.734;2023-07-29T01:33:45;4.22;;;3.83;;
34573;SDS011;20809;49.594;8.734;2023-07-29T01:37:04;5.63;;;4.25;;
34573;SDS011;20809;49.594;8.734;2023-07-29T01:40:11;5.53;;;4.53;;
34573;SDS011;20809;49.594;8.734;2023-07-29T01:46:14;2.87;;;2.57;;
34573;SDS011;20809;49.594;8.734;2023-07-29T01:49:14;4.55;;;3.72;;
34573;SDS011;20809;49.594;8.734;2023-07-29T01:52:15;5.53;;;4.20;;
34573;SDS011;20809;49.594;8.734;2023-07-29T01:55:16;6.80;;;4.30;;
34573;SDS011;20809;49.594;8.734;2023-07-29T01:58:16;8.07;;;4.30;;
34573;SDS011;20809;49.594;8.734;2023-07-29T02:01:17;4.80;;;4.37;;
34573;SDS011;20809;49.594;8.734;2023-07-29T02:04:18;5.70;;;4.78;;
34573;SDS011;20809;49.594;8.734;2023-07-29T02:07:18;5.77;;;4.97;;
34573;SDS011;20809;49.594;8.734;2023-07-29T02:10:19;5.22;;;4.82;;
34573;SDS011;20809;49.594;8.734;2023-07-29T02:13:20;5.40;;;4.90;;
34573;SDS011;20809;49.594;8.734;2023-07-29T02:16:21;5.77;;;5.27;;
34573;SDS011;20809;49.594;8.734;2023-07-29T02:19:22;6.05;;;4.45;;
34573;SDS011;20809;49.594;8.734;2023-07-29T02:22:23;6.13;;;4.10;;
34573;SDS011;20809;49.594;8.734;2023-07-29T02:25:23;9.32;;;4.55;;
34573;SDS011;20809;49.594;8.734;2023-07-29T02:28:24;5.00;;;4.60;;
34573;SDS011;20809;49.594;8.734;2023-07-29T02:31:25;6.30;;;4.80;;
34573;SDS011;20809;49.594;8.734;2023-07-29T02:34:25;5.47;;;4.18;;
34573;SDS011;20809;49.594;8.734;2023-07-29T02:37:26;3.70;;;3.08;;
34573;SDS011;20809;49.594;8.734;2023-07-29T02:40:26;3.70;;;3.40;;
34573;SDS011;20809;49.594;8.734;2023-07-29T02:43:29;4.55;;;4.07;;
34573;SDS011;20809;49.594;8.734;2023-07-29T02:46:29;5.43;;;4.90;;
34573;SDS011;20809;49.594;8.734;2023-07-29T02:49:30;8.03;;;4.23;;
34573;SDS011;20809;49.594;8.734;2023-07-29T02:52:30;4.47;;;4.13;;
34573;SDS011;20809;49.594;8.734;2023-07-29T02:55:31;4.97;;;4.47;;
34573;SDS011;20809;49.594;8.734;2023-07-29T02:58:32;6.28;;;4.50;;
34573;SDS011;20809;49.594;8.734;2023-07-29T03:01:32;6.15;;;3.08;;
34573;SDS011;20809;49.594;8.734;2023-07-29T03:04:34;6.38;;;2.85;;
34573;SDS011;20809;49.594;8.734;2023-07-29T03:07:34;2.80;;;2.60;;
34573;SDS011;20809;49.594;8.734;2023-07-29T03:10:35;3.50;;;2.72;;
34573;SDS011;20809;49.594;8.734;2023-07-29T03:13:36;2.53;;;2.33;;
34573;SDS011;20809;49.594;8.734;2023-07-29T03:16:37;2.53;;;2.33;;
34573;SDS011;20809;49.594;8.734;2023-07-29T03:19:38;6.68;;;2.75;;
34573;SDS011;20809;49.594;8.734;2023-07-29T03:22:38;3.67;;;2.60;;
34573;SDS011;20809;49.594;8.734;2023-07-29T03:25:39;4.15;;;2.38;;
34573;SDS011;20809;49.594;8.734;2023-07-29T03:28:40;3.78;;;1.83;;
34573;SDS011;20809;49.594;8.734;2023-07-29T03:31:42;4.13;;;1.80;;
34573;SDS011;20809;49.594;8.734;2023-07-29T03:34:42;4.07;;;1.70;;
34573;SDS011;20809;49.594;8.734;2023-07-29T03:37:43;2.37;;;1.97;;
34573;SDS011;20809;49.594;8.734;2023-07-29T03:40:44;2.33;;;1.85;;
34573;SDS011;20809;49.594;8.734;2023-07-29T03:43:44;2.20;;;1.97;;
34573;SDS011;20809;49.594;8.734;2023-07-29T03:46:45;2.53;;;1.87;;
34573;SDS011;20809;49.594;8.734;2023-07-29T03:49:45;2.10;;;1.80;;
34573;SDS011;20809;49.594;8.734;2023-07-29T03:52:46;2.17;;;1.97;;
34573;SDS011;20809;49.594;8.734;2023-07-29T03:55:46;1.80;;;1.60;;
34573;SDS011;20809;49.594;8.734;2023-07-29T03:58:47;2.83;;;2.03;;
34573;SDS011;20809;49.594;8.734;2023-07-29T04:01:49;2.13;;;1.80;;
34573;SDS011;20809;49.594;8.734;2023-07-29T04:04:49;3.80;;;1.80;;
34573;SDS011;20809;49.594;8.734;2023-07-29T04:07:50;2.05;;;1.85;;
34573;SDS011;20809;49.594;8.734;2023-07-29T04:10:51;2.15;;;1.73;;
34573;SDS011;20809;49.594;8.734;2023-07-29T04:13:51;2.00;;;1.80;;
34573;SDS011;20809;49.594;8.734;2023-07-29T04:16:52;1.70;;;1.60;;
34573;SDS011;20809;49.594;8.734;2023-07-29T04:19:52;1.40;;;1.30;;
34573;SDS011;20809;49.594;8.734;2023-07-29T04:22:53;2.15;;;1.83;;
34573;SDS011;20809;49.594;8.734;2023-07-29T04:25:53;2.42;;;1.58;;
34573;SDS011;20809;49.594;8.734;2023-07-29T04:28:54;1.70;;;1.60;;
34573;SDS011;20809;49.594;8.734;2023-07-29T04:31:54;1.60;;;1.50;;
34573;SDS011;20809;49.594;8.734;2023-07-29T04:34:55;2.40;;;1.80;;
34573;SDS011;20809;49.594;8.734;2023-07-29T04:37:55;1.70;;;1.60;;
34573;SDS011;20809;49.594;8.734;2023-07-29T04:40:56;2.03;;;1.63;;
34573;SDS011;20809;49.594;8.734;2023-07-29T04:43:57;4.70;;;1.60;;
34573;SDS011;20809;49.594;8.734;2023-07-29T04:46:57;2.07;;;1.87;;
34573;SDS011;20809;49.594;8.734;2023-07-29T04:49:58;1.55;;;1.27;;
34573;SDS011;20809;49.594;8.734;2023-07-29T04:52:59;3.60;;;1.88;;
34573;SDS011;20809;49.594;8.734;2023-07-29T04:55:59;1.40;;;1.30;;
34573;SDS011;20809;49.594;8.734;2023-07-29T04:59:00;1.43;;;1.33;;
34573;SDS011;20809;49.594;8.734;2023-07-29T05:02:00;1.70;;;1.60;;
34573;SDS011;20809;49.594;8.734;2023-07-29T05:05:01;1.90;;;1.58;;
34573;SDS011;20809;49.594;8.734;2023-07-29T05:08:02;1.90;;;1.50;;
34573;SDS011;20809;49.594;8.734;2023-07-29T05:11:03;1.88;;;1.40;;
34573;SDS011;20809;49.594;8.734;2023-07-29T05:14:03;3.17;;;2.15;;
34573;SDS011;20809;49.594;8.734;2023-07-29T05:17:06;3.13;;;2.10;;
34573;SDS011;20809;49.594;8.734;2023-07-29T05:20:06;1.80;;;1.70;;
34573;SDS011;20809;49.594;8.734;2023-07-29T05:23:10;3.72;;;1.77;;
34573;SDS011;20809;49.594;8.734;2023-07-29T05:30:01;3.15;;;1.73;;
34573;SDS011;20809;49.594;8.734;2023-07-29T05:33:24;1.98;;;1.65;;
34573;SDS011;20809;49.594;8.734;2023-07-29T05:49:13;3.28;;;1.55;;
34573;SDS011;20809;49.594;8.734;2023-07-29T05:53:00;2.33;;;1.52;;
34573;SDS011;20809;49.594;8.734;2023-07-29T05:56:45;1.20;;;1.10;;
34573;SDS011;20809;49.594;8.734;2023-07-29T06:00:26;2.40;;;1.25;;
34573;SDS011;20809;49.594;8.734;2023-07-29T06:07:33;1.00;;;1.00;;
34573;SDS011;20809;49.594;8.734;2023-07-29T06:27:22;0.60;;;0.60;;
34573;SDS011;20809;49.594;8.734;2023-07-29T06:39:38;0.60;;;0.60;;
34573;SDS011;20809;49.594;8.734;2023-07-29T06:43:00;1.50;;;0.60;;
34573;SDS011;20809;49.594;8.734;2023-07-29T06:50:11;0.50;;;0.30;;
34573;SDS011;20809;49.594;8.734;2023-07-29T06:53:14;2.25;;;0.50;;
34573;SDS011;20809;49.594;8.734;2023-07-29T06:56:21;0.47;;;0.47;;
34573;SDS011;20809;49.594;8.734;2023-07-29T07:15:59;2.03;;;1.20;;
34573;SDS011;20809;49.594;8.734;2023-07-29T07:19:00;1.33;;;0.95;;
34573;SDS011;20809;49.594;8.734;2023-07-29T07:22:00;1.63;;;1.52;;
34573;SDS011;20809;49.594;8.734;2023-07-29T07:25:01;1.63;;;1.25;;
34573;SDS011;20809;49.594;8.734;2023-07-29T07:28:01;1.63;;;1.27;;
34573;SDS011;20809;49.594;8.734;2023-07-29T07:31:02;1.33;;;1.00;;
34573;SDS011;20809;49.594;8.734;2023-07-29T07:34:03;2.00;;;1.20;;
34573;SDS011;20809;49.594;8.734;2023-07-29T07:37:04;3.75;;;1.17;;
34573;SDS011;20809;49.594;8.734;2023-07-29T07:40:04;1.27;;;1.10;;
34573;SDS011;20809;49.594;8.734;2023-07-29T07:55:53;1.90;;;1.33;;
34573;SDS011;20809;49.594;8.734;2023-07-29T08:07:21;1.90;;;1.70;;
34573;SDS011;20809;49.594;8.734;2023-07-29T08:10:22;3.55;;;2.75;;
34573;SDS011;20809;49.594;8.734;2023-07-29T08:13:23;4.63;;;2.22;;
34573;SDS011;20809;49.594;8.734;2023-07-29T08:16:24;2.25;;;2.05;;
34573;SDS011;20809;49.594;8.734;2023-07-29T08:19:24;2.70;;;2.50;;
34573;SDS011;20809;49.594;8.734;2023-07-29T08:22:25;3.30;;;3.00;;
34573;SDS011;20809;49.594;8.734;2023-07-29T08:25:26;2.78;;;2.10;;
34573;SDS011;20809;49.594;8.734;2023-07-29T08:28:29;2.78;;;2.58;;
34573;SDS011;20809;49.594;8.734;2023-07-29T08:31:32;2.38;;;2.17;;
34573;SDS011;20809;49.594;8.734;2023-07-29T08:34:34;2.60;;;2.30;;
34573;SDS011;20809;49.594;8.734;2023-07-29T08:37:34;2.88;;;1.70;;
34573;SDS011;20809;49.594;8.734;2023-07-29T08:40:35;3.35;;;1.80;;
34573;SDS011;20809;49.594;8.734;2023-07-29T08:43:43;1.70;;;1.60;;
34573;SDS011;20809;49.594;8.734;2023-07-29T08:47:02;4.38;;;1.85;;
34573;SDS011;20809;49.594;8.734;2023-07-29T08:50:03;1.73;;;1.40;;
34573;SDS011;20809;49.594;8.734;2023-07-29T08:53:04;3.00;;;1.40;;
34573;SDS011;20809;49.594;8.734;2023-07-29T08:56:06;3.80;;;1.83;;
34573;SDS011;20809;49.594;8.734;2023-07-29T08:59:07;2.88;;;1.33;;
34573;SDS011;20809;49.594;8.734;2023-07-29T09:02:09;1.83;;;1.38;;
34573;SDS011;20809;49.594;8.734;2023-07-29T09:05:09;1.80;;;1.40;;
34573;SDS011;20809;49.594;8.734;2023-07-29T09:08:10;2.20;;;1.27;;
34573;SDS011;20809;49.594;8.734;2023-07-29T09:11:12;3.08;;;1.45;;
34573;SDS011;20809;49.594;8.734;2023-07-29T09:14:14;3.03;;;1.40;;
34573;SDS011;20809;49.594;8.734;2023-07-29T09:17:15;2.63;;;1.45;;
34573;SDS011;20809;49.594;8.734;2023-07-29T09:23:23;3.25;;;1.38;;
34573;SDS011;20809;49.594;8.734;2023-07-29T09:29:28;1.48;;;1.30;;
34573;SDS011;20809;49.594;8.734;2023-07-29T09:32:29;4.35;;;1.67;;
34573;SDS011;20809;49.594;8.734;2023-07-29T09:35:31;2.08;;;1.15;;
34573;SDS011;20809;49.594;8.734;2023-07-29T09:38:37;1.50;;;1.40;;
34573;SDS011;20809;49.594;8.734;2023-07-29T09:41:38;2.45;;;1.40;;
34573;SDS011;20809;49.594;8.734;2023-07-29T09:44:38;1.13;;;1.02;;
34573;SDS011;20809;49.594;8.734;2023-07-29T09:50:39;1.20;;;1.10;;
34573;SDS011;20809;49.594;8.734;2023-07-29T09:53:44;1.77;;;1.30;;
34573;SDS011;20809;49.594;8.734;2023-07-29T09:56:46;2.70;;;2.05;;
34573;SDS011;20809;49.594;8.734;2023-07-29T10:02:55;1.95;;;1.50;;
34573;SDS011;20809;49.594;8.734;2023-07-29T10:05:59;2.03;;;1.50;;
34573;SDS011;20809;49.594;8.734;2023-07-29T10:09:03;2.10;;;1.40;;
34573;SDS011;20809;49.594;8.734;2023-07-29T10:12:08;1.58;;;1.48;;
34573;SDS011;20809;49.594;8.734;2023-07-29T10:15:10;1.25;;;1.20;;
34573;SDS011;20809;49.594;8.734;2023-07-29T10:21:12;2.97;;;2.77;;
34573;SDS011;20809;49.594;8.734;2023-07-29T10:24:15;2.20;;;2.00;;
34573;SDS011;20809;49.594;8.734;2023-07-29T10:27:19;1.83;;;1.60;;
34573;SDS011;20809;49.594;8.734;2023-07-29T10:30:22;2.22;;;1.50;;
34573;SDS011;20809;49.594;8.734;2023-07-29T10:33:25;1.60;;;1.50;;
34573;SDS011;20809;49.594;8.734;2023-07-29T10:36:27;3.08;;;1.60;;
34573;SDS011;20809;49.594;8.734;2023-07-29T10:39:32;3.42;;;1.65;;
34573;SDS011;20809;49.594;8.734;2023-07-29T10:42:58;14.70;;;2.50;;
34573;SDS011;20809;49.594;8.734;2023-07-29T10:46:17;5.22;;;1.77;;
34573;SDS011;20809;49.594;8.734;2023-07-29T10:49:23;3.57;;;1.23;;
34573;SDS011;20809;49.594;8.734;2023-07-29T10:55:36;3.40;;;2.60;;
34573;SDS011;20809;49.594;8.734;2023-07-29T11:01:41;2.50;;;1.60;;
34573;SDS011;20809;49.594;8.734;2023-07-29T11:04:47;2.35;;;1.35;;
34573;SDS011;20809;49.594;8.734;2023-07-29T11:07:51;1.67;;;1.20;;
34573;SDS011;20809;49.594;8.734;2023-07-29T11:10:58;2.78;;;1.40;;
34573;SDS011;20809;49.594;8.734;2023-07-29T11:14:01;1.55;;;1.35;;
34573;SDS011;20809;49.594;8.734;2023-07-29T11:20:04;3.63;;;2.22;;
34573;SDS011;20809;49.594;8.734;2023-07-29T11:23:05;2.10;;;1.58;;
34573;SDS011;20809;49.594;8.734;2023-07-29T11:29:06;3.10;;;1.50;;
34573;SDS011;20809;49.594;8.734;2023-07-29T11:32:11;2.60;;;1.40;;
34573;SDS011;20809;49.594;8.734;2023-07-29T11:35:17;1.55;;;1.15;;
34573;SDS011;20809;49.594;8.734;2023-07-29T11:38:19;5.63;;;1.38;;
34573;SDS011;20809;49.594;8.734;2023-07-29T11:41:20;3.83;;;3.53;;
34573;SDS011;20809;49.594;8.734;2023-07-29T11:44:22;2.03;;;1.40;;
34573;SDS011;20809;49.594;8.734;2023-07-29T11:50:23;2.13;;;1.33;;
34573;SDS011;20809;49.594;8.734;2023-07-29T11:53:25;1.50;;;1.40;;
34573;SDS011;20809;49.594;8.734;2023-07-29T11:56:28;1.98;;;1.20;;
34573;SDS011;20809;49.594;8.734;2023-07-29T11:59:30;2.28;;;1.27;;
34573;SDS011;20809;49.594;8.734;2023-07-29T12:02:32;4.05;;;1.50;;
34573;SDS011;20809;49.594;8.734;2023-07-29T12:05:35;2.97;;;1.95;;
34573;SDS011;20809;49.594;8.734;2023-07-29T12:11:37;1.57;;;1.47;;
34573;SDS011;20809;49.594;8.734;2023-07-29T12:17:41;26.83;;;4.80;;
34573;SDS011;20809;49.594;8.734;2023-07-29T12:20:42;46.60;;;6.35;;
34573;SDS011;20809;49.594;8.734;2023-07-29T12:23:43;7.93;;;2.95;;
34573;SDS011;20809;49.594;8.734;2023-07-29T12:29:44;13.73;;;2.93;;
34573;SDS011;20809;49.594;8.734;2023-07-29T12:32:46;17.08;;;2.90;;
34573;SDS011;20809;49.594;8.734;2023-07-29T12:38:50;2.47;;;1.60;;
34573;SDS011;20809;49.594;8.734;2023-07-29T12:44:52;3.92;;;1.17;;
34573;SDS011;20809;49.594;8.734;2023-07-29T12:47:52;10.57;;;2.30;;
34573;SDS011;20809;49.594;8.734;2023-07-29T12:50:53;5.28;;;1.98;;
34573;SDS011;20809;49.594;8.734;2023-07-29T12:56:54;2.50;;;1.53;;
34573;SDS011;20809;49.594;8.734;2023-07-29T13:02:55;1.73;;;1.53;;
34573;SDS011;20809;49.594;8.734;2023-07-29T13:05:56;2.38;;;1.27;;
34573;SDS011;20809;49.594;8.734;2023-07-29T13:11:57;2.47;;;1.10;;
34573;SDS011;20809;49.594;8.734;2023-07-29T13:17:58;27.33;;;4.37;;
34573;SDS011;20809;49.594;8.734;2023-07-29T13:24:00;4.30;;;1.40;;
34573;SDS011;20809;49.594;8.734;2023-07-29T13:27:00;72.03;;;8.35;;
34573;SDS011;20809;49.594;8.734;2023-07-29T13:30:01;8.35;;;1.50;;
34573;SDS011;20809;49.594;8.734;2023-07-29T13:33:02;1.17;;;1.08;;
34573;SDS011;20809;49.594;8.734;2023-07-29T13:36:02;4.18;;;1.30;;
34573;SDS011;20809;49.594;8.734;2023-07-29T13:39:03;1.38;;;1.13;;
34573;SDS011;20809;49.594;8.734;2023-07-29T13:42:06;1.50;;;1.40;;
34573;SDS011;20809;49.594;8.734;2023-07-29T13:48:19;1.60;;;1.10;;
34573;SDS011;20809;49.594;8.734;2023-07-29T13:51:25;1.48;;;1.38;;
34573;SDS011;20809;49.594;8.734;2023-07-29T13:54:25;2.25;;;1.30;;
34573;SDS011;20809;49.594;8.734;2023-07-29T13:57:31;1.67;;;1.27;;
34573;SDS011;20809;49.594;8.734;2023-07-29T14:00:32;2.75;;;1.40;;
34573;SDS011;20809;49.594;8.734;2023-07-29T14:03:33;3.13;;;1.52;;
34573;SDS011;20809;49.594;8.734;2023-07-29T14:06:33;1.50;;;1.40;;
34573;SDS011;20809;49.594;8.734;2023-07-29T14:09:34;3.88;;;1.40;;
34573;SDS011;20809;49.594;8.734;2023-07-29T14:12:34;2.08;;;1.67;;
34573;SDS011;20809;49.594;8.734;2023-07-29T14:15:36;1.60;;;1.35;;
34573;SDS011;20809;49.594;8.734;2023-07-29T14:18:39;2.17;;;1.30;;
34573;SDS011;20809;49.594;8.734;2023-07-29T14:25:10;4.60;;;1.52;;
34573;SDS011;20809;49.594;8.734;2023-07-29T14:32:52;1.70;;;1.05;;
34573;SDS011;20809;49.594;8.734;2023-07-29T14:51:38;2.15;;;1.30;;
34573;SDS011;20809;49.594;8.734;2023-07-29T14:55:14;2.83;;;1.25;;
34573;SDS011;20809;49.594;8.734;2023-07-29T14:58:50;1.90;;;1.30;;
34573;SDS011;20809;49.594;8.734;2023-07-29T15:10:10;1.67;;;1.45;;
34573;SDS011;20809;49.594;8.734;2023-07-29T15:13:24;1.42;;;1.33;;
34573;SDS011;20809;49.594;8.734;2023-07-29T15:16:27;4.88;;;1.33;;
34573;SDS011;20809;49.594;8.734;2023-07-29T15:19:43;1.30;;;1.17;;
34573;SDS011;20809;49.594;8.734;2023-07-29T15:25:54;1.90;;;1.30;;
34573;SDS011;20809;49.594;8.734;2023-07-29T15:32:52;2.88;;;1.38;;
34573;SDS011;20809;49.594;8.734;2023-07-29T15:38:53;2.53;;;1.20;;
34573;SDS011;20809;49.594;8.734;2023-07-29T15:44:54;1.47;;;1.37;;
34573;SDS011;20809;49.594;8.734;2023-07-29T15:50:56;3.83;;;1.38;;
34573;SDS011;20809;49.594;8.734;2023-07-29T15:53:56;1.35;;;1.27;;
34573;SDS011;20809;49.594;8.734;2023-07-29T15:59:57;1.50;;;1.40;;
34573;SDS011;20809;49.594;8.734;2023-07-29T16:05:59;2.20;;;1.50;;
34573;SDS011;20809;49.594;8.734;2023-07-29T16:09:01;1.85;;;1.70;;
34573;SDS011;20809;49.594;8.734;2023-07-29T16:12:06;2.70;;;1.50;;
34573;SDS011;20809;49.594;8.734;2023-07-29T16:15:07;1.50;;;1.40;;
34573;SDS011;20809;49.594;8.734;2023-07-29T16:18:08;1.58;;;1.40;;
34573;SDS011;20809;49.594;8.734;2023-07-29T16:24:10;1.70;;;1.13;;
34573;SDS011;20809;49.594;8.734;2023-07-29T16:27:10;1.30;;;1.05;;
34573;SDS011;20809;49.594;8.734;2023-07-29T16:30:11;1.48;;;1.38;;
34573;SDS011;20809;49.594;8.734;2023-07-29T16:36:12;1.50;;;1.40;;
34573;SDS011;20809;49.594;8.734;2023-07-29T16:39:13;2.63;;;1.45;;
34573;SDS011;20809;49.594;8.734;2023-07-29T16:45:14;1.92;;;1.67;;
34573;SDS011;20809;49.594;8.734;2023-07-29T16:51:15;1.23;;;1.13;;
34573;SDS011;20809;49.594;8.734;2023-07-29T16:57:17;1.30;;;1.20;;
34573;SDS011;20809;49.594;8.734;2023-07-29T17:03:19;1.43;;;1.33;;
34573;SDS011;20809;49.594;8.734;2023-07-29T17:09:20;2.38;;;1.45;;
34573;SDS011;20809;49.594;8.734;2023-07-29T17:18:59;1.65;;;1.33;;
34573;SDS011;20809;49.594;8.734;2023-07-29T17:22:03;2.22;;;1.60;;
34573;SDS011;20809;49.594;8.734;2023-07-29T17:28:04;1.57;;;1.33;;
34573;SDS011;20809;49.594;8.734;2023-07-29T17:31:06;2.63;;;1.75;;
34573;SDS011;20809;49.594;8.734;2023-07-29T17:37:07;2.93;;;1.70;;
34573;SDS011;20809;49.594;8.734;2023-07-29T17:43:09;2.20;;;1.40;;
34573;SDS011;20809;49.594;8.734;2023-07-29T17:46:12;2.30;;;1.50;;
34573;SDS011;20809;49.594;8.734;2023-07-29T17:49:12;1.40;;;1.30;;
34573;SDS011;20809;49.594;8.734;2023-07-29T17:52:13;3.00;;;1.17;;
34573;SDS011;20809;49.594;8.734;2023-07-29T17:58:14;2.45;;;1.33;;
34573;SDS011;20809;49.594;8.734;2023-07-29T18:01:15;1.80;;;1.70;;
34573;SDS011;20809;49.594;8.734;2023-07-29T18:04:15;1.35;;;1.25;;
34573;SDS011;20809;49.594;8.734;2023-07-29T18:07:16;1.55;;;1.45;;
34573;SDS011;20809;49.594;8.734;2023-07-29T18:10:16;1.83;;;1.67;;
34573;SDS011;20809;49.594;8.734;2023-07-29T18:13:17;1.90;;;1.80;;
34573;SDS011;20809;49.594;8.734;2023-07-29T18:16:17;2.03;;;1.60;;
34573;SDS011;20809;49.594;8.734;2023-07-29T18:19:20;3.05;;;1.65;;
34573;SDS011;20809;49.594;8.734;2023-07-29T18:22:21;2.08;;;1.88;;
34573;SDS011;20809;49.594;8.734;2023-07-29T18:25:22;1.77;;;1.67;;
34573;SDS011;20809;49.594;8.734;2023-07-29T18:28:22;4.63;;;1.80;;
34573;SDS011;20809;49.594;8.734;2023-07-29T18:31:23;3.28;;;1.63;;
34573;SDS011;20809;49.594;8.734;2023-07-29T18:34:23;2.00;;;1.50;;
34573;SDS011;20809;49.594;8.734;2023-07-29T18:37:24;2.47;;;1.60;;
34573;SDS011;20809;49.594;8.734;2023-07-29T18:40:28;2.33;;;1.95;;
34573;SDS011;20809;49.594;8.734;2023-07-29T18:43:28;2.58;;;1.90;;
34573;SDS011;20809;49.594;8.734;2023-07-29T18:46:29;1.95;;;1.70;;
34573;SDS011;20809;49.594;8.734;2023-07-29T18:49:30;1.58;;;1.48;;
34573;SDS011;20809;49.594;8.734;2023-07-29T18:52:38;3.67;;;2.30;;
34573;SDS011;20809;49.594;8.734;2023-07-29T18:56:09;7.10;;;2.20;;
34573;SDS011;20809;49.594;8.734;2023-07-29T18:59:23;3.30;;;2.97;;
34573;SDS011;20809;49.594;8.734;2023-07-29T19:06:29;2.47;;;1.95;;
34573;SDS011;20809;49.594;8.734;2023-07-29T19:09:30;2.85;;;2.05;;
34573;SDS011;20809;49.594;8.734;2023-07-29T19:12:30;2.25;;;2.05;;
34573;SDS011;20809;49.594;8.734;2023-07-29T19:15:31;2.65;;;2.45;;
34573;SDS011;20809;49.594;8.734;2023-07-29T19:18:31;3.90;;;2.63;;
34573;SDS011;20809;49.594;8.734;2023-07-29T19:21:32;3.33;;;1.75;;
34573;SDS011;20809;49.594;8.734;2023-07-29T19:24:33;5.97;;;3.20;;
34573;SDS011;20809;49.594;8.734;2023-07-29T19:27:34;3.65;;;3.20;;
34573;SDS011;20809;49.594;8.734;2023-07-29T19:30:52;3.15;;;2.42;;
34573;SDS011;20809;49.594;8.734;2023-07-29T19:37:28;2.22;;;2.10;;
34573;SDS011;20809;49.594;8.734;2023-07-29T19:40:41;2.25;;;2.05;;
34573;SDS011;20809;49.594;8.734;2023-07-29T19:43:50;3.85;;;2.63;;
34573;SDS011;20809;49.594;8.734;2023-07-29T19:46:54;3.58;;;2.90;;
34573;SDS011;20809;49.594;8.734;2023-07-29T19:49:54;3.88;;;2.97;;
34573;SDS011;20809;49.594;8.734;2023-07-29T19:52:55;4.72;;;4.22;;
34573;SDS011;20809;49.594;8.734;2023-07-29T19:55:55;6.82;;;4.82;;
34573;SDS011;20809;49.594;8.734;2023-07-29T19:58:57;2.88;;;2.60;;
34573;SDS011;20809;49.594;8.734;2023-07-29T20:01:57;2.70;;;2.50;;
34573;SDS011;20809;49.594;8.734;2023-07-29T20:04:58;3.08;;;2.78;;
34573;SDS011;20809;49.594;8.734;2023-07-29T20:07:58;4.78;;;2.00;;
34573;SDS011;20809;49.594;8.734;2023-07-29T20:10:59;4.93;;;4.47;;
34573;SDS011;20809;49.594;8.734;2023-07-29T20:14:00;3.33;;;3.03;;
34573;SDS011;20809;49.594;8.734;2023-07-29T20:17:00;2.50;;;2.30;;
34573;SDS011;20809;49.594;8.734;2023-07-29T20:20:01;2.30;;;2.10;;
34573;SDS011;20809;49.594;8.734;2023-07-29T20:23:02;3.10;;;1.80;;
34573;SDS011;20809;49.594;8.734;2023-07-29T20:26:02;2.22;;;2.03;;
34573;SDS011;20809;49.594;8.734;2023-07-29T20:29:03;3.95;;;1.80;;
34573;SDS011;20809;49.594;8.734;2023-07-29T20:32:04;1.83;;;1.45;;
34573;SDS011;20809;49.594;8.734;2023-07-29T20:35:04;7.90;;;5.43;;
34573;SDS011;20809;49.594;8.734;2023-07-29T20:38:05;3.03;;;2.63;;
34573;SDS011;20809;49.594;8.734;2023-07-29T20:41:06;3.90;;;2.17;;
34573;SDS011;20809;49.594;8.734;2023-07-29T20:44:06;3.20;;;1.92;;
34573;SDS011;20809;49.594;8.734;2023-07-29T20:47:10;4.68;;;2.25;;
34573;SDS011;20809;49.594;8.734;2023-07-29T20:50:11;4.10;;;2.45;;
34573;SDS011;20809;49.594;8.734;2023-07-29T20:56:13;2.77;;;2.50;;
34573;SDS011;20809;49.594;8.734;2023-07-29T20:59:17;2.72;;;2.40;;
34573;SDS011;20809;49.594;8.734;2023-07-29T21:02:18;2.15;;;1.85;;
34573;SDS011;20809;49.594;8.734;2023-07-29T21:05:19;7.78;;;5.25;;
34573;SDS011;20809;49.594;8.734;2023-07-29T21:08:19;3.00;;;2.80;;
34573;SDS011;20809;49.594;8.734;2023-07-29T21:11:20;5.07;;;2.83;;
34573;SDS011;20809;49.594;8.734;2023-07-29T21:14:21;2.58;;;2.17;;
34573;SDS011;20809;49.594;8.734;2023-07-29T21:17:23;4.82;;;3.72;;
34573;SDS011;20809;49.594;8.734;2023-07-29T21:20:23;3.13;;;2.00;;
34573;SDS011;20809;49.594;8.734;2023-07-29T21:23:24;3.13;;;2.15;;
34573;SDS011;20809;49.594;8.734;2023-07-29T21:26:24;1.80;;;1.70;;
34573;SDS011;20809;49.594;8.734;2023-07-29T21:29:25;3.83;;;1.85;;
34573;SDS011;20809;49.594;8.734;2023-07-29T21:32:26;4.13;;;2.05;;
34573;SDS011;20809;49.594;8.734;2023-07-29T21:35:26;1.77;;;1.67;;
34573;SDS011;20809;49.594;8.734;2023-07-29T21:38:27;3.05;;;2.13;;
34573;SDS011;20809;49.594;8.734;2023-07-29T21:41:27;1.95;;;1.83;;
34573;SDS011;20809;49.594;8.734;2023-07-29T21:44:28;4.38;;;1.83;;
34573;SDS011;20809;49.594;8.734;2023-07-29T21:47:29;1.92;;;1.83;;
34573;SDS011;20809;49.594;8.734;2023-07-29T21:50:29;4.85;;;2.03;;
34573;SDS011;20809;49.594;8.734;2023-07-29T21:53:30;3.90;;;2.10;;
34573;SDS011;20809;49.594;8.734;2023-07-29T21:56:30;2.67;;;2.33;;
34573;SDS011;20809;49.594;8.734;2023-07-29T21:59:32;2.95;;;2.70;;
34573;SDS011;20809;49.594;8.734;2023-07-29T22:02:32;4.20;;;2.70;;
34573;SDS011;20809;49.594;8.734;2023-07-29T22:05:33;3.50;;;3.13;;
34573;SDS011;20809;49.594;8.734;2023-07-29T22:08:33;4.10;;;3.80;;
34573;SDS011;20809;49.594;8.734;2023-07-29T22:11:34;4.43;;;4.03;;
34573;SDS011;20809;49.594;8.734;2023-07-29T22:14:34;5.18;;;3.63;;
34573;SDS011;20809;49.594;8.734;2023-07-29T22:17:35;10.63;;;4.38;;
34573;SDS011;20809;49.594;8.734;2023-07-29T22:20:35;7.10;;;4.95;;
34573;SDS011;20809;49.594;8.734;2023-07-29T22:23:36;6.95;;;4.82;;
34573;SDS011;20809;49.594;8.734;2023-07-29T22:26:36;6.20;;;4.88;;
34573;SDS011;20809;49.594;8.734;2023-07-29T22:29:37;5.18;;;4.70;;
34573;SDS011;20809;49.594;8.734;2023-07-29T22:35:39;6.73;;;4.37;;
34573;SDS011;20809;49.594;8.734;2023-07-29T22:38:39;4.27;;;3.90;;
34573;SDS011;20809;49.594;8.734;2023-07-29T22:41:40;6.43;;;3.90;;
34573;SDS011;20809;49.594;8.734;2023-07-29T22:44:40;6.88;;;4.72;;
34573;SDS011;20809;49.594;8.734;2023-07-29T22:47:41;7.25;;;5.50;;
34573;SDS011;20809;49.594;8.734;2023-07-29T22:50:42;5.43;;;4.72;;